Time;durP1;ratioP1;P1;durP2;ratioP2;P2;SDS_P1;SDS_P2;PMS_P1;PMS_P2;Temp;Humidity;BMP_temperature;BMP_pressure;BME280_temperature;BME280_humidity;BME280_pressure;Samples;Min_cycle;Max_cycle;Signal;HPM_P1;HPM_P2
2023/10/09 00:03:27;;;;;;;5.90;2.90;;;;;;;7.73;84.44;101380.23;105030;1257;69104;-59
2023/10/09 00:05:57;;;;;;;5.70;3.20;;;;;;;7.75;85.12;101372.91;105099;1260;69202;-59
2023/10/09 00:08:31;;;;;;;4.90;2.80;;;;;;;7.78;85.07;101385.23;105110;1259;75036;-59
2023/10/09 00:11:13;;;;;;;7.30;3.30;;;;;;;7.79;85.24;101379.14;105041;1262;82928;-59
2023/10/09 00:13:48;;;;;;;6.90;3.10;;;;;;;7.79;85.05;101375.65;105042;1259;72032;-59
2023/10/09 00:16:34;;;;;;;7.30;2.90;;;;;;;7.81;85.41;101375.98;105065;1259;69209;-59
2023/10/09 00:19:14;;;;;;;6.80;3.20;;;;;;;7.86;85.52;101386.02;105060;1259;69131;-59
2023/10/09 00:21:46;;;;;;;4.50;2.80;;;;;;;7.82;85.32;101390.58;105068;1259;73361;-59
2023/10/09 00:24:24;;;;;;;6.10;3.00;;;;;;;7.79;85.23;101389.74;105103;1262;81187;-59
2023/10/09 00:27:01;;;;;;;6.30;3.00;;;;;;;7.80;85.64;101390.60;105065;1260;73069;-59
2023/10/09 00:29:34;;;;;;;5.30;2.80;;;;;;;7.83;85.43;101386.74;105065;1260;69229;-59
2023/10/09 00:32:15;;;;;;;5.60;3.00;;;;;;;7.87;85.61;101372.61;105090;1262;69291;-59
2023/10/09 00:34:44;;;;;;;7.20;3.70;;;;;;;7.88;85.54;101362.69;104771;1259;74018;-59
2023/10/09 00:37:22;;;;;;;9.60;3.40;;;;;;;7.87;85.47;101349.98;105101;1262;81548;-59
2023/10/09 00:39:57;;;;;;;6.10;3.20;;;;;;;7.90;85.58;101341.78;105037;1262;72919;-59
2023/10/09 00:42:29;;;;;;;6.70;2.60;;;;;;;7.91;85.07;101344.02;105086;1259;69109;-58
2023/10/09 00:45:04;;;;;;;4.80;2.60;;;;;;;7.89;85.00;101348.73;105080;1259;69304;-59
2023/10/09 00:47:34;;;;;;;5.00;2.80;;;;;;;7.91;85.11;101347.86;105022;1260;73707;-59
2023/10/09 00:50:21;;;;;;;5.10;2.90;;;;;;;7.92;85.18;101350.81;105063;1259;81699;-59
2023/10/09 00:53:02;;;;;;;6.70;3.00;;;;;;;7.95;85.21;101361.73;105048;1260;71697;-59
2023/10/09 00:55:45;;;;;;;5.50;3.10;;;;;;;7.99;85.22;101363.77;105033;1262;69120;-59
2023/10/09 00:58:20;;;;;;;6.30;2.80;;;;;;;8.02;85.21;101349.48;105067;1260;69126;-59
2023/10/09 01:00:52;;;;;;;7.00;3.20;;;;;;;8.04;85.23;101340.05;105049;1260;75040;-59
2023/10/09 01:03:22;;;;;;;4.60;2.70;;;;;;;8.06;85.57;101328.90;104891;1264;82770;-59
2023/10/09 01:08:38;;;;;;;8.30;3.40;;;;;;;8.14;85.49;101317.83;105080;1262;69154;-59
2023/10/09 01:11:21;;;;;;;;;;;;;;;8.20;85.62;101321.58;105116;1260;69211;-59
2023/10/09 01:16:21;;;;;;;5.00;2.90;;;;;;;8.22;85.40;101325.56;105105;1259;81864;-59
2023/10/09 01:19:00;;;;;;;6.10;3.20;;;;;;;8.22;85.13;101322.08;105014;1265;72742;-59
2023/10/09 01:21:31;;;;;;;6.10;3.10;;;;;;;8.20;84.99;101312.88;105064;1259;69095;-59
2023/10/09 01:24:03;;;;;;;6.80;2.90;;;;;;;8.18;84.92;101306.81;105047;1260;69190;-59
2023/10/09 01:26:44;;;;;;;6.60;3.50;;;;;;;8.18;85.05;101306.64;105059;1259;72985;-59
2023/10/09 01:29:19;;;;;;;6.40;2.90;;;;;;;8.19;84.75;101304.19;105083;1262;81218;-59
2023/10/09 01:35:20;;;;;;;7.70;3.70;;;;;;;8.13;84.69;101300.42;105082;1260;69214;-59
2023/10/09 01:39:50;;;;;;;5.90;3.10;;;;;;;8.14;84.77;101294.84;105055;1260;74997;-59
2023/10/09 01:42:24;;;;;;;8.30;3.40;;;;;;;8.15;84.90;101285.42;105020;1264;81459;-59
2023/10/09 01:44:53;;;;;;;6.80;3.30;;;;;;;8.16;84.77;101280.39;105035;1260;72657;-59
2023/10/09 01:47:21;;;;;;;6.10;3.20;;;;;;;8.16;84.57;101278.62;105130;1262;69124;-59
2023/10/09 01:49:52;;;;;;;6.30;3.20;;;;;;;8.16;84.74;101270.29;105103;1259;69197;-59
2023/10/09 01:52:20;;;;;;;6.40;3.10;;;;;;;8.15;84.65;101252.89;105080;1259;74183;-59
2023/10/09 01:55:01;;;;;;;6.30;3.60;;;;;;;8.12;84.43;101251.70;104996;1265;82826;-59
2023/10/09 01:57:30;;;;;;;7.00;2.80;;;;;;;8.10;84.54;101253.47;105016;1262;71705;-59
2023/10/09 01:59:59;;;;;;;4.40;2.80;;;;;;;8.11;84.76;101245.95;105045;1263;69234;-59
2023/10/09 02:02:33;;;;;;;7.60;3.20;;;;;;;8.15;85.04;101235.12;105081;1262;69122;-59
2023/10/09 02:05:26;;;;;;;8.10;3.00;;;;;;;8.17;84.76;101224.48;105122;1260;74633;-59
2023/10/09 02:07:53;;;;;;;5.60;3.20;;;;;;;8.14;84.73;101226.44;104997;1260;80888;-59
2023/10/09 02:10:31;;;;;;;6.30;2.90;;;;;;;8.11;84.45;101227.52;104975;1259;71863;-59
2023/10/09 02:13:10;;;;;;;6.90;3.00;;;;;;;8.11;84.69;101222.31;104992;1264;69128;-59
2023/10/09 02:21:01;;;;;;;5.40;2.90;;;;;;;8.18;85.14;101199.39;105107;1262;81195;-59
2023/10/09 02:23:49;;;;;;;6.10;2.50;;;;;;;8.25;84.95;101187.97;105056;1260;72227;-59
2023/10/09 02:26:25;;;;;;;5.50;2.70;;;;;;;8.27;84.81;101179.23;105065;1264;69198;-59
2023/10/09 02:28:58;;;;;;;5.70;2.90;;;;;;;8.30;84.87;101177.80;105031;1262;69203;-59
2023/10/09 02:31:35;;;;;;;7.10;3.30;;;;;;;8.29;84.61;101174.00;105030;1264;75321;-59
2023/10/09 02:34:05;;;;;;;5.90;2.60;;;;;;;8.29;84.57;101173.48;105074;1260;81411;-60
2023/10/09 02:36:48;;;;;;;4.40;2.60;;;;;;;8.31;84.55;101175.70;105087;1259;70318;-59
2023/10/09 02:39:32;;;;;;;5.60;2.90;;;;;;;8.32;84.67;101170.98;105049;1262;69205;-59
2023/10/09 02:42:01;;;;;;;5.10;2.70;;;;;;;8.34;84.54;101172.86;105103;1260;69129;-59
2023/10/09 02:44:34;;;;;;;5.30;3.10;;;;;;;8.35;84.66;101183.63;105077;1262;74069;-59
2023/10/09 02:47:05;;;;;;;6.40;3.20;;;;;;;8.35;84.47;101193.06;105039;1262;81427;-59
2023/10/09 02:49:34;;;;;;;5.20;2.80;;;;;;;8.28;84.28;101205.17;105055;1262;72036;-60
2023/10/09 02:52:07;;;;;;;6.30;3.50;;;;;;;8.17;84.33;101198.70;105086;1259;69151;-60
2023/10/09 02:54:40;;;;;;;5.60;3.20;;;;;;;8.08;84.20;101199.17;105023;1260;69181;-60
2023/10/09 02:57:15;;;;;;;8.40;3.70;;;;;;;7.95;84.18;101192.92;105109;1262;73727;-60
2023/10/09 02:59:44;;;;;;;5.10;2.90;;;;;;;7.83;84.69;101189.43;105069;1260;82630;-60
2023/10/09 03:02:13;;;;;;;6.80;3.30;;;;;;;7.77;85.54;101179.59;105073;1259;72789;-59
2023/10/09 03:04:41;;;;;;;5.90;2.90;;;;;;;7.74;85.95;101175.10;105105;1257;69135;-60
2023/10/09 03:07:11;;;;;;;4.50;2.90;;;;;;;7.72;86.62;101172.86;105124;1261;69203;-60
2023/10/09 03:09:40;;;;;;;7.50;3.40;;;;;;;7.70;86.93;101179.15;105092;1261;72591;-60
2023/10/09 03:12:12;;;;;;;6.20;3.10;;;;;;;7.70;87.15;101172.89;105094;1262;81616;-60
2023/10/09 03:14:41;;;;;;;5.80;2.50;;;;;;;7.68;87.01;101167.70;105053;1259;72152;-60
2023/10/09 03:17:12;;;;;;;5.10;2.80;;;;;;;7.62;86.83;101158.92;105018;1260;69083;-60
2023/10/09 03:19:43;;;;;;;5.00;2.60;;;;;;;7.57;87.21;101143.48;105076;1262;69193;-60
2023/10/09 03:22:11;;;;;;;3.70;2.30;;;;;;;7.56;87.20;101137.06;105075;1260;74200;-60
2023/10/09 03:24:44;;;;;;;4.10;2.90;;;;;;;7.56;87.72;101130.10;105118;1262;83298;-60
2023/10/09 03:27:19;;;;;;;5.50;2.60;;;;;;;7.57;87.85;101121.41;105092;1261;71744;-59
2023/10/09 03:29:53;;;;;;;6.20;3.10;;;;;;;7.57;88.12;101113.91;105019;1262;69188;-59
2023/10/09 03:32:22;;;;;;;5.70;2.90;;;;;;;7.60;88.63;101105.36;105090;1259;69181;-59
2023/10/09 03:34:51;;;;;;;6.40;3.30;;;;;;;7.62;88.76;101098.39;105051;1261;72131;-59
2023/10/09 03:37:33;;;;;;;6.00;2.80;;;;;;;7.60;88.33;101099.79;105113;1260;81922;-59
2023/10/09 03:40:04;;;;;;;6.70;3.30;;;;;;;7.60;88.62;101085.88;105044;1262;73026;-59
2023/10/09 03:42:33;;;;;;;5.90;3.00;;;;;;;7.58;88.50;101076.69;105099;1258;69285;-59
2023/10/09 03:45:12;;;;;;;6.00;3.30;;;;;;;7.55;88.62;101071.33;105088;1259;69176;-59
2023/10/09 03:47:48;;;;;;;4.90;2.90;;;;;;;7.52;88.62;101059.05;105105;1259;74165;-59
2023/10/09 03:53:08;;;;;;;6.80;2.90;;;;;;;7.53;89.39;101042.15;105070;1259;71542;-59
2023/10/09 03:55:38;;;;;;;6.40;2.90;;;;;;;7.52;89.73;101034.70;105071;1260;69292;-58
2023/10/09 03:58:07;;;;;;;5.70;2.90;;;;;;;7.52;90.08;101025.98;105053;1262;69110;-58
2023/10/09 04:00:45;;;;;;;5.90;3.40;;;;;;;7.49;90.00;101024.64;105112;1260;75028;-58
2023/10/09 04:03:15;;;;;;;4.30;2.60;;;;;;;7.44;90.01;101028.36;105037;1262;81741;-59
2023/10/09 04:05:45;;;;;;;6.40;2.60;;;;;;;7.42;90.43;101031.34;105074;1258;73435;-59
2023/10/09 04:08:28;;;;;;;5.10;2.60;;;;;;;7.45;90.70;101030.27;105085;1260;69221;-59
2023/10/09 04:11:02;;;;;;;6.00;2.90;;;;;;;7.42;90.24;101031.34;105065;1262;69187;-59
2023/10/09 04:13:34;;;;;;;4.20;2.40;;;;;;;7.36;90.45;101037.35;105096;1259;72910;-59
2023/10/09 04:16:10;;;;;;;4.20;2.30;;;;;;;7.34;90.35;101042.06;105074;1260;82103;-59
2023/10/09 04:18:39;;;;;;;4.30;2.40;;;;;;;7.33;90.76;101041.71;105067;1262;71707;-58
2023/10/09 04:21:33;;;;;;;4.60;2.30;;;;;;;7.34;90.91;101045.89;105123;1262;69215;-59
2023/10/09 04:24:41;;;;;;;4.00;2.50;;;;;;;7.34;91.32;101057.19;105082;1260;69100;-59
2023/10/09 04:26:57;;;;;;;5.00;2.50;;;;;;;7.30;91.13;101063.16;105016;1262;72708;-59
2023/10/09 04:29:28;;;;;;;4.60;2.40;;;;;;;7.27;91.18;101061.46;105062;1262;81738;-59
2023/10/09 04:32:00;;;;;;;4.70;2.40;;;;;;;7.27;92.20;101061.80;105040;1262;72948;-59
2023/10/09 04:34:29;;;;;;;4.40;2.70;;;;;;;7.31;92.39;101064.19;105081;1259;69084;-59
2023/10/09 04:37:00;;;;;;;5.10;2.50;;;;;;;7.33;92.61;101065.20;105035;1262;69225;-59
2023/10/09 04:47:36;;;;;;;6.30;2.80;;;;;;;7.38;93.32;101060.42;105048;1262;69276;-59
2023/10/09 04:50:11;;;;;;;6.60;2.60;;;;;;;7.36;92.99;101049.68;105049;1260;69064;-59
2023/10/09 05:03:05;;;;;;;6.80;2.40;;;;;;;7.33;93.79;101024.52;105054;1262;69199;-59
2023/10/09 05:08:28;;;;;;;3.80;2.20;;;;;;;7.34;94.58;101018.08;105080;1262;81643;-59
2023/10/09 05:16:18;;;;;;;8.40;3.80;;;;;;;7.43;95.29;100991.52;105007;1259;69176;-59
2023/10/09 05:21:49;;;;;;;6.10;2.80;;;;;;;7.47;95.56;100981.38;104694;1265;81790;-59
2023/10/09 05:24:19;;;;;;;6.70;3.10;;;;;;;7.48;95.61;100971.45;104932;1259;72059;-59
2023/10/09 05:37:43;;;;;;;5.30;2.70;;;;;;;7.54;96.46;100932.93;105005;1260;72822;-59
2023/10/09 05:42:57;;;;;;;5.10;2.60;;;;;;;7.50;96.55;100931.08;104971;1259;69212;-59
2023/10/09 05:46:07;;;;;;;4.70;2.20;;;;;;;7.51;96.73;100930.70;105006;1263;72889;-59
2023/10/09 06:04:33;;;;;;;4.30;2.10;;;;;;;7.67;97.70;100919.68;104969;1264;73025;-59
2023/10/09 06:07:11;;;;;;;6.50;2.40;;;;;;;7.67;97.96;100914.98;105036;1263;69218;-59
2023/10/09 06:09:57;;;;;;;4.50;2.40;;;;;;;7.69;98.07;100926.25;105018;1263;69218;-59
2023/10/09 06:15:32;;;;;;;5.20;2.30;;;;;;;7.67;97.78;100926.97;104984;1264;81577;-59
2023/10/09 06:18:25;;;;;;;4.90;2.50;;;;;;;7.61;97.79;100911.42;105037;1266;71339;-59
2023/10/09 06:26:32;;;;;;;5.40;2.30;;;;;;;7.65;98.40;100893.62;104970;1262;73764;-59
2023/10/09 06:29:17;;;;;;;3.00;2.00;;;;;;;7.71;98.82;100900.30;104989;1262;82709;-60
2023/10/09 06:31:57;;;;;;;4.40;2.00;;;;;;;7.75;98.79;100907.00;104993;1265;73029;-59
2023/10/09 06:34:35;;;;;;;3.70;1.90;;;;;;;7.82;99.19;100905.84;104992;1262;69079;-60
2023/10/09 06:38:21;;;;;;;4.80;1.90;;;;;;;7.83;98.93;100896.25;105183;1271;69195;-57
2023/10/09 06:47:42;;;;;;;4.40;1.90;;;;;;;7.84;98.95;100885.28;105148;1263;69102;-59
2023/10/09 06:53:18;;;;;;;5.10;2.10;;;;;;;7.85;98.73;100889.63;105208;1263;73396;-59
2023/10/09 06:56:05;;;;;;;3.60;2.20;;;;;;;7.84;98.68;100883.52;105063;1263;82575;-58
2023/10/09 06:58:41;;;;;;;3.30;1.70;;;;;;;7.88;99.17;100880.52;105192;1261;73089;-59
2023/10/09 07:01:25;;;;;;;4.60;2.00;;;;;;;7.91;99.12;100873.48;105125;1263;69139;-58
2023/10/09 07:04:10;;;;;;;5.10;2.40;;;;;;;7.95;99.21;100855.84;105200;1263;69166;-57
2023/10/09 07:17:00;;;;;;;2.50;1.60;;;;;;;8.16;99.06;100862.58;105131;1263;69277;-59
2023/10/09 07:20:36;;;;;;;3.80;1.70;;;;;;;8.16;98.83;100867.44;105121;1262;73463;-59
2023/10/09 07:22:29;;;;;;;3.20;1.60;;;;;;;8.17;99.13;100869.67;105000;1264;81205;-58
2023/10/09 07:24:58;;;;;;;3.50;1.70;;;;;;;8.17;98.90;100866.02;105112;1263;71630;-58
2023/10/09 07:27:45;;;;;;;3.70;1.60;;;;;;;8.16;98.86;100862.91;105139;1260;69164;-59
2023/10/09 07:35:47;;;;;;;4.00;1.70;;;;;;;8.16;99.15;100860.64;105122;1263;82878;-59
2023/10/09 07:38:21;;;;;;;2.80;1.60;;;;;;;8.18;99.19;100858.71;105107;1260;71851;-58
2023/10/09 07:46:33;;;;;;;3.80;1.70;;;;;;;8.12;99.01;100837.58;105191;1262;73644;-58
2023/10/09 07:49:09;;;;;;;4.70;1.70;;;;;;;8.13;99.38;100833.21;105205;1262;82557;-59
2023/10/09 07:51:43;;;;;;;2.80;1.40;;;;;;;8.16;99.42;100830.88;105117;1259;72060;-57
2023/10/09 07:54:15;;;;;;;3.60;1.70;;;;;;;8.18;99.23;100832.41;105131;1271;69562;-59
2023/10/09 07:56:53;;;;;;;3.20;1.40;;;;;;;8.19;99.52;100839.02;105128;1271;69530;-59
2023/10/09 07:59:23;;;;;;;3.80;1.80;;;;;;;8.18;99.34;100846.34;105225;1260;74277;-59
2023/10/09 08:01:52;;;;;;;2.80;1.60;;;;;;;8.17;99.61;100847.91;105113;1263;81532;-59
2023/10/09 08:04:47;;;;;;;3.70;1.60;;;;;;;8.14;99.26;100852.69;105246;1261;72845;-59
2023/10/09 08:07:19;;;;;;;3.60;1.90;;;;;;;8.14;99.72;100847.30;105198;1263;69080;-59
2023/10/09 08:17:53;;;;;;;3.50;1.80;;;;;;;8.10;99.88;100834.32;105158;1271;71012;-59
2023/10/09 08:20:26;;;;;;;3.90;1.50;;;;;;;8.12;100.00;100840.73;105160;1263;69153;-59
2023/10/09 08:22:58;;;;;;;5.10;1.80;;;;;;;8.13;100.00;100837.76;105268;1258;69151;-60
2023/10/09 08:25:26;;;;;;;4.40;1.50;;;;;;;8.12;100.00;100834.98;105298;1261;74024;-57
2023/10/09 08:36:04;;;;;;;3.10;1.40;;;;;;;8.17;100.00;100860.11;104668;1268;69196;-58
2023/10/09 08:38:34;;;;;;;4.10;1.60;;;;;;;8.17;100.00;100858.89;104747;1264;74335;-58
2023/10/09 08:41:17;;;;;;;4.80;1.70;;;;;;;8.17;100.00;100862.20;104775;1268;81716;-58
2023/10/09 08:43:56;;;;;;;5.90;2.20;;;;;;;8.15;99.99;100865.03;104710;1269;72583;-58
2023/10/09 08:46:28;;;;;;;2.80;1.50;;;;;;;8.13;100.00;100865.42;104729;1268;69342;-58
2023/10/09 08:48:58;;;;;;;3.10;1.70;;;;;;;8.14;100.00;100863.29;104678;1268;69392;-58
2023/10/09 08:51:29;;;;;;;3.90;2.00;;;;;;;8.17;100.00;100864.82;104845;1269;73780;-58
2023/10/09 08:53:57;;;;;;;5.40;1.80;;;;;;;8.21;100.00;100878.14;105070;1272;83434;-58
2023/10/09 08:56:26;;;;;;;4.30;1.80;;;;;;;8.24;100.00;100887.66;105091;1271;71873;-58
2023/10/09 08:58:57;;;;;;;3.80;1.90;;;;;;;8.26;100.00;100883.44;105212;1261;69163;-58
2023/10/09 09:01:25;;;;;;;6.40;3.20;;;;;;;8.18;100.00;100878.19;105314;1260;69111;-58
2023/10/09 09:03:57;;;;;;;4.80;2.40;;;;;;;8.16;100.00;100870.77;105297;1264;72892;-58
2023/10/09 09:06:26;;;;;;;4.10;2.00;;;;;;;8.11;100.00;100871.39;105138;1261;82807;-56
2023/10/09 09:08:59;;;;;;;4.40;2.00;;;;;;;8.07;100.00;100877.89;105105;1261;73416;-58
2023/10/09 09:11:35;;;;;;;3.00;1.80;;;;;;;8.05;100.00;100877.92;105180;1263;69112;-56
2023/10/09 09:14:06;;;;;;;3.60;2.00;;;;;;;8.08;100.00;100878.39;105192;1261;69146;-58
2023/10/09 09:16:36;;;;;;;3.20;1.90;;;;;;;8.09;100.00;100865.13;105161;1261;72306;-58
2023/10/09 09:21:42;;;;;;;3.80;2.40;;;;;;;8.14;100.00;100832.15;105149;1264;73108;-55
2023/10/09 09:26:59;;;;;;;4.60;2.30;;;;;;;8.19;100.00;100829.61;105089;1262;69716;-57
2023/10/09 09:29:37;;;;;;;3.90;1.80;;;;;;;8.19;100.00;100829.27;105256;1259;74492;-55
2023/10/09 09:32:19;;;;;;;4.70;2.50;;;;;;;8.18;100.00;100831.19;105245;1262;83322;-58
2023/10/09 09:34:49;;;;;;;4.90;2.20;;;;;;;8.21;100.00;100842.11;105179;1263;73010;-56
2023/10/09 09:37:28;;;;;;;15.90;7.30;;;;;;;8.25;100.00;100848.98;105082;1263;69069;-57
2023/10/09 09:40:29;;;;;;;5.90;2.10;;;;;;;8.23;99.98;100845.72;105307;1263;69310;-56
2023/10/09 09:43:06;;;;;;;37.60;16.70;;;;;;;8.24;100.00;100827.75;105234;1263;72461;-58
2023/10/09 09:45:35;;;;;;;17.40;8.30;;;;;;;8.31;100.00;100821.52;105146;1263;81842;-58
2023/10/09 09:48:11;;;;;;;10.50;4.50;;;;;;;8.34;100.00;100823.56;105171;1264;71699;-60
2023/10/09 09:50:46;;;;;;;5.20;3.20;;;;;;;8.39;100.00;100825.38;105166;1261;69253;-56
2023/10/09 09:53:18;;;;;;;10.20;4.70;;;;;;;8.46;100.00;100828.38;105172;1264;69277;-58
2023/10/09 09:55:57;;;;;;;7.00;4.40;;;;;;;8.49;100.00;100830.59;105055;1261;73705;-57
2023/10/09 09:58:42;;;;;;;7.30;3.50;;;;;;;8.55;100.00;100828.90;105131;1263;83391;-57
2023/10/09 10:01:24;;;;;;;4.70;2.50;;;;;;;8.61;100.00;100818.48;105172;1262;72225;-57
2023/10/09 10:04:14;;;;;;;7.00;3.40;;;;;;;8.66;100.00;100815.06;105130;1263;69160;-56
2023/10/09 10:06:45;;;;;;;4.00;2.00;;;;;;;8.75;100.00;100812.59;105195;1263;69168;-57
2023/10/09 10:09:45;;;;;;;4.40;2.90;;;;;;;8.85;100.00;100821.95;105118;1261;73953;-57
2023/10/09 10:12:17;;;;;;;3.90;2.80;;;;;;;8.95;100.00;100817.52;105131;1264;80398;-58
2023/10/09 10:14:52;;;;;;;8.10;5.40;;;;;;;9.01;99.95;100818.27;105222;1261;72255;-58
2023/10/09 10:17:21;;;;;;;4.60;2.00;;;;;;;9.00;99.81;100827.16;105347;1263;69134;-58
2023/10/09 10:22:47;;;;;;;4.20;2.00;;;;;;;9.01;99.76;100817.04;105114;1263;72702;-57
2023/10/09 10:25:32;;;;;;;3.20;1.90;;;;;;;9.04;99.82;100813.30;105212;1262;81734;-57
2023/10/09 10:28:42;;;;;;;3.10;1.90;;;;;;;9.09;100.00;100811.96;105115;1263;72829;-58
2023/10/09 10:31:13;;;;;;;3.00;1.80;;;;;;;9.14;99.95;100804.17;104927;1259;69537;-58
2023/10/09 10:33:58;;;;;;;3.20;1.60;;;;;;;9.15;99.93;100793.67;105107;1261;68994;-57
2023/10/09 10:36:26;;;;;;;2.80;1.80;;;;;;;9.21;99.98;100788.66;105243;1258;74907;-58
2023/10/09 10:39:19;;;;;;;3.30;2.00;;;;;;;9.24;99.82;100786.14;105164;1262;82913;-59
2023/10/09 10:42:00;;;;;;;3.30;1.60;;;;;;;9.24;99.41;100792.59;105195;1261;71726;-59
2023/10/09 10:44:42;;;;;;;2.70;1.60;;;;;;;9.25;99.46;100800.06;105019;1264;69085;-58
2023/10/09 10:47:26;;;;;;;2.70;1.90;;;;;;;9.32;99.63;100798.14;105199;1262;69135;-58
2023/10/09 10:49:58;;;;;;;2.50;1.70;;;;;;;9.35;99.27;100803.28;105158;1263;74858;-58
2023/10/09 10:53:34;;;;;;;6.00;3.20;;;;;;;9.34;99.10;100801.77;105233;1261;82690;-58
2023/10/09 10:58:13;;;;;;;3.40;1.60;;;;;;;9.34;98.68;100808.90;105075;1264;69266;-58
2023/10/09 11:06:14;;;;;;;4.10;1.60;;;;;;;9.29;98.41;100797.67;105088;1261;82019;-59
2023/10/09 11:09:08;;;;;;;4.10;1.40;;;;;;;9.27;98.66;100796.34;105148;1260;71690;-58
2023/10/09 11:11:46;;;;;;;3.30;1.70;;;;;;;9.26;98.70;100795.34;105134;1260;69099;-59
2023/10/09 11:14:15;;;;;;;2.70;1.40;;;;;;;9.28;98.78;100792.32;105383;1261;69119;-59
2023/10/09 11:16:50;;;;;;;4.80;1.50;;;;;;;9.31;98.77;100796.08;105283;1260;75091;-58
2023/10/09 11:22:27;;;;;;;2.80;1.60;;;;;;;9.46;99.50;100802.30;105174;1260;73918;-58
2023/10/09 11:25:33;;;;;;;2.80;1.50;;;;;;;9.53;99.25;100797.94;105146;1258;69157;-57
2023/10/09 11:27:50;;;;;;;3.30;1.60;;;;;;;9.60;99.47;100796.34;105040;1260;69070;-59
2023/10/09 11:30:32;;;;;;;3.20;1.80;;;;;;;9.69;99.45;100790.02;105231;1261;75091;-59
2023/10/09 11:33:05;;;;;;;3.40;1.90;;;;;;;9.74;99.01;100781.30;105163;1261;82824;-59
2023/10/09 11:35:35;;;;;;;3.70;1.50;;;;;;;9.72;98.83;100775.10;105192;1260;72045;-59
2023/10/09 11:38:20;;;;;;;2.20;1.60;;;;;;;9.72;98.80;100784.86;105113;1262;69275;-59
2023/10/09 11:43:50;;;;;;;3.20;1.50;;;;;;;9.85;99.32;100784.50;105146;1261;75971;-59
2023/10/09 11:46:36;;;;;;;5.30;1.70;;;;;;;9.92;99.24;100780.48;105127;1262;84572;-59
2023/10/09 11:52:34;;;;;;;3.70;2.00;;;;;;;10.03;99.09;100775.98;105196;1261;69180;-59
2023/10/09 11:54:56;;;;;;;6.40;3.50;;;;;;;10.09;98.76;100775.64;105101;1261;69095;-59
2023/10/09 11:57:33;;;;;;;11.80;6.60;;;;;;;10.14;98.76;100778.63;105280;1259;74788;-59
2023/10/09 12:02:50;;;;;;;2.80;1.70;;;;;;;10.11;98.10;100775.21;105200;1260;72087;-58
2023/10/09 12:05:18;;;;;;;3.70;2.70;;;;;;;10.10;98.04;100766.88;105220;1262;69192;-59
2023/10/09 12:07:53;;;;;;;14.80;9.00;;;;;;;10.08;97.94;100760.31;105092;1264;69188;-59
2023/10/09 12:10:25;;;;;;;6.10;3.40;;;;;;;10.08;97.95;100757.66;105202;1261;73096;-59
2023/10/09 12:12:57;;;;;;;2.90;2.20;;;;;;;10.10;97.82;100756.56;105108;1262;81736;-58
2023/10/09 12:15:36;;;;;;;3.50;1.70;;;;;;;10.09;98.02;100759.22;105238;1261;71695;-58
2023/10/09 12:18:18;;;;;;;3.70;1.50;;;;;;;10.09;97.68;100759.74;105271;1262;69123;-58
2023/10/09 12:20:50;;;;;;;3.30;1.90;;;;;;;10.11;97.87;100753.05;105149;1259;69221;-59
2023/10/09 12:23:21;;;;;;;4.80;3.10;;;;;;;10.15;97.59;100749.08;105165;1262;75223;-59
2023/10/09 12:25:50;;;;;;;4.00;1.80;;;;;;;10.17;97.63;100747.11;105145;1261;81619;-58
2023/10/09 12:28:22;;;;;;;2.90;1.70;;;;;;;10.20;97.72;100748.23;105200;1264;72575;-59
2023/10/09 12:30:50;;;;;;;4.10;2.60;;;;;;;10.21;97.29;100749.60;105154;1261;69310;-59
2023/10/09 12:33:27;;;;;;;3.20;1.70;;;;;;;10.21;97.07;100745.92;105185;1262;69193;-59
2023/10/09 12:35:59;;;;;;;4.40;1.70;;;;;;;10.24;96.94;100738.50;105168;1263;72268;-58
2023/10/09 12:38:32;;;;;;;3.80;1.70;;;;;;;10.23;96.66;100735.21;105292;1260;81942;-58
2023/10/09 12:41:18;;;;;;;2.40;1.40;;;;;;;10.23;96.53;100738.37;105057;1259;72849;-59
2023/10/09 12:43:47;;;;;;;5.00;2.10;;;;;;;10.23;96.59;100738.89;105371;1262;69206;-59
2023/10/09 12:46:16;;;;;;;2.80;1.70;;;;;;;10.21;96.29;100737.91;105054;1260;69085;-60
2023/10/09 12:48:46;;;;;;;2.10;1.40;;;;;;;10.23;96.39;100746.56;105086;1262;75939;-60
2023/10/09 12:51:18;;;;;;;2.80;1.80;;;;;;;10.29;96.61;100752.02;105021;1263;82387;-60
2023/10/09 12:53:54;;;;;;;4.60;2.00;;;;;;;10.31;96.68;100752.12;104974;1260;71731;-60
2023/10/09 12:56:32;;;;;;;4.30;2.20;;;;;;;10.34;96.48;100753.43;105068;1259;69171;-60
2023/10/09 12:59:01;;;;;;;3.00;1.90;;;;;;;10.31;95.66;100753.88;105044;1259;69194;-60
2023/10/09 13:01:32;;;;;;;3.20;1.80;;;;;;;10.27;95.28;100747.16;105086;1262;73955;-60
2023/10/09 13:04:00;;;;;;;;;;;;;;;10.30;95.74;100743.23;105037;1262;81556;-60
2023/10/09 13:06:29;;;;;;;2.80;1.80;;;;;;;10.37;95.91;100739.54;105053;1263;72120;-60
2023/10/09 13:08:59;;;;;;;4.90;2.10;;;;;;;10.39;95.39;100732.67;105050;1260;69145;-60
2023/10/09 13:11:28;;;;;;;2.70;1.70;;;;;;;10.36;95.24;100726.11;105044;1261;69676;-60
2023/10/09 13:14:06;;;;;;;3.30;2.00;;;;;;;10.36;95.15;100720.54;105013;1262;73556;-61
2023/10/09 13:16:35;;;;;;;3.60;2.10;;;;;;;10.37;94.99;100708.46;105031;1262;81692;-61
2023/10/09 13:19:09;;;;;;;4.90;3.00;;;;;;;10.37;94.96;100697.97;105022;1261;72044;-60
2023/10/09 13:21:40;;;;;;;4.20;2.40;;;;;;;10.42;95.10;100696.59;105054;1262;69161;-60
2023/10/09 13:24:15;;;;;;;6.90;4.10;;;;;;;10.45;94.86;100693.68;105105;1262;69241;-60
2023/10/09 13:26:46;;;;;;;6.00;3.40;;;;;;;10.44;94.52;100690.21;105077;1261;73701;-60
2023/10/09 13:29:22;;;;;;;4.20;2.60;;;;;;;10.51;94.77;100689.85;105072;1262;80639;-60
2023/10/09 13:31:58;;;;;;;3.80;1.90;;;;;;;10.52;94.45;100696.09;105069;1260;72991;-60
2023/10/09 13:34:28;;;;;;;5.40;3.50;;;;;;;10.54;94.39;100697.80;105058;1260;69094;-60
2023/10/09 13:36:59;;;;;;;5.00;3.30;;;;;;;10.56;94.59;100698.92;105089;1264;69192;-60
2023/10/09 13:39:30;;;;;;;3.40;2.40;;;;;;;10.58;94.37;100702.74;105088;1260;74888;-60
2023/10/09 13:42:01;;;;;;;4.10;3.20;;;;;;;10.51;93.70;100705.73;105108;1260;82879;-60
2023/10/09 13:44:30;;;;;;;5.40;4.00;;;;;;;10.47;93.66;100707.62;105068;1260;73135;-60
2023/10/09 13:47:05;;;;;;;3.60;2.10;;;;;;;10.46;93.70;100707.11;105109;1262;69138;-60
2023/10/09 13:49:37;;;;;;;3.80;1.80;;;;;;;10.41;93.30;100714.95;105072;1260;69052;-57
2023/10/09 13:52:07;;;;;;;4.00;2.00;;;;;;;10.37;93.54;100726.96;105087;1259;75087;-60
2023/10/09 13:57:05;;;;;;;3.90;1.80;;;;;;;10.31;93.21;100744.98;105061;1260;73116;-60
2023/10/09 13:59:35;;;;;;;5.20;1.70;;;;;;;10.29;93.65;100752.00;105063;1259;69163;-60
2023/10/09 14:02:16;;;;;;;3.40;1.80;;;;;;;10.31;93.94;100763.66;105086;1259;69151;-60
2023/10/09 14:04:50;;;;;;;2.50;1.50;;;;;;;10.31;93.87;100763.67;105076;1262;73949;-60
2023/10/09 14:07:20;;;;;;;2.70;1.90;;;;;;;10.28;93.76;100756.77;105061;1260;83051;-60
2023/10/09 14:10:07;;;;;;;5.70;2.00;;;;;;;10.23;93.80;100751.27;105081;1262;71769;-60
2023/10/09 14:12:39;;;;;;;3.40;1.60;;;;;;;10.20;93.87;100753.83;105127;1260;69254;-60
2023/10/09 14:15:11;;;;;;;4.30;2.10;;;;;;;10.20;94.15;100753.83;105100;1262;69142;-60
2023/10/09 14:17:42;;;;;;;2.90;1.90;;;;;;;10.19;94.06;100760.84;105068;1260;72506;-60
2023/10/09 14:20:30;;;;;;;3.60;1.90;;;;;;;10.19;94.13;100765.55;105067;1259;82834;-60
2023/10/09 14:23:06;;;;;;;3.50;2.10;;;;;;;10.24;94.54;100767.34;105070;1259;71482;-60
2023/10/09 14:25:47;;;;;;;3.00;1.80;;;;;;;10.23;94.31;100763.70;105089;1262;69843;-60
2023/10/09 14:28:18;;;;;;;;;;;;;;;10.24;94.49;100762.42;105105;1259;69209;-60
2023/10/09 14:30:53;;;;;;;3.60;1.80;;;;;;;10.23;94.29;100760.54;105066;1262;74030;-60
2023/10/09 14:33:22;;;;;;;3.30;1.80;;;;;;;10.16;93.91;100763.55;105069;1260;81371;-60
2023/10/09 14:35:52;;;;;;;4.30;2.00;;;;;;;10.14;93.73;100767.29;105103;1260;72880;-60
2023/10/09 14:38:27;;;;;;;2.50;1.60;;;;;;;10.07;93.47;100773.23;105035;1258;69905;-60
2023/10/09 14:40:57;;;;;;;4.40;1.60;;;;;;;10.06;93.68;100771.70;105123;1261;69205;-60
2023/10/09 14:43:33;;;;;;;2.60;1.70;;;;;;;10.08;93.45;100776.36;105096;1260;74933;-60
2023/10/09 14:46:04;;;;;;;2.90;1.70;;;;;;;10.10;93.57;100776.30;105127;1260;81505;-60